Time;durP1;ratioP1;P1;durP2;ratioP2;P2;SDS_P1;SDS_P2;PMS_P1;PMS_P2;Temp;Humidity;BMP_temperature;BMP_pressure;BME280_temperature;BME280_humidity;BME280_pressure;Samples;Min_cycle;Max_cycle;Signal;HPM_P1;HPM_P2
2022/06/26 00:00:19;;;;;;;29.13;21.17;;;19.90;99.90;;;;;;9181633;19;20023;-74
2022/06/26 00:03:26;;;;;;;27.37;20.67;;;19.70;99.90;;;;;;9178747;19;20024;-73
2022/06/26 00:06:30;;;;;;;27.52;19.63;;;19.70;99.90;;;;;;9182126;19;20256;-73
2022/06/26 00:09:34;;;;;;;30.92;20.83;;;20.70;99.90;;;;;;9180924;19;20022;-73
2022/06/26 00:12:38;;;;;;;23.77;19.58;;;19.90;99.90;;;;;;9178333;19;20070;-74
2022/06/26 00:15:42;;;;;;;28.40;21.00;;;19.60;99.90;;;;;;9179082;19;20436;-74
2022/06/26 00:18:49;;;;;;;29.50;19.83;;;19.70;99.90;;;;;;9179561;19;20019;-74
2022/06/26 00:21:53;;;;;;;28.98;20.25;;;19.60;99.90;;;;;;9177578;19;20794;-74
2022/06/26 00:24:57;;;;;;;26.55;20.13;;;19.70;99.90;;;;;;9179561;19;20018;-73
2022/06/26 00:28:01;;;;;;;28.63;20.27;;;19.50;99.90;;;;;;9178291;19;20021;-74
2022/06/26 00:31:05;;;;;;;26.98;20.55;;;19.70;99.90;;;;;;9175116;19;20487;-74
2022/06/26 00:34:12;;;;;;;29.17;21.38;;;19.50;99.90;;;;;;9182056;19;20022;-73
2022/06/26 00:37:16;;;;;;;25.90;20.27;;;19.40;99.90;;;;;;9177616;19;20025;-72
2022/06/26 00:40:21;;;;;;;28.63;20.50;;;19.50;99.90;;;;;;9181160;19;20061;-72
2022/06/26 00:43:29;;;;;;;30.20;21.80;;;19.40;99.90;;;;;;9177959;19;20040;-74
2022/06/26 00:46:33;;;;;;;28.42;21.17;;;19.40;99.90;;;;;;9179064;19;20015;-72
2022/06/26 00:49:39;;;;;;;28.80;20.83;;;19.50;99.90;;;;;;9181232;19;20090;-73
2022/06/26 00:52:44;;;;;;;29.20;21.20;;;19.30;99.90;;;;;;9180231;19;20022;-73
2022/06/26 00:55:48;;;;;;;25.63;20.20;;;19.50;99.90;;;;;;9176703;19;20015;-73
2022/06/26 00:58:52;;;;;;;26.20;19.88;;;19.40;99.90;;;;;;9179256;19;20019;-73
2022/06/26 01:01:56;;;;;;;25.90;20.00;;;19.40;99.90;;;;;;9176398;19;20420;-74
2022/06/26 01:05:03;;;;;;;27.27;21.42;;;19.30;99.90;;;;;;9180069;19;20025;-73
2022/06/26 01:08:07;;;;;;;26.98;19.92;;;19.30;99.90;;;;;;9180875;19;20042;-73
2022/06/26 01:11:20;;;;;;;25.95;20.52;;;19.30;99.90;;;;;;9184991;19;20003;-73
2022/06/26 01:14:25;;;;;;;25.92;21.42;;;19.20;99.90;;;;;;9189143;19;20018;-73
2022/06/26 01:17:29;;;;;;;31.70;21.88;;;19.20;99.90;;;;;;9186423;19;20007;-73
2022/06/26 01:20:35;;;;;;;29.83;21.70;;;19.20;99.90;;;;;;9186150;19;20021;-74
2022/06/26 01:23:42;;;;;;;26.20;20.10;;;19.20;99.90;;;;;;9184412;19;20399;-73
2022/06/26 01:26:47;;;;;;;25.30;20.20;;;19.00;99.90;;;;;;9184626;19;20010;-73
2022/06/26 01:29:51;;;;;;;25.65;20.42;;;19.10;99.90;;;;;;9186157;19;20010;-74
2022/06/26 01:32:55;;;;;;;27.20;21.17;;;19.00;99.90;;;;;;9184935;19;20018;-72
2022/06/26 01:35:59;;;;;;;25.85;20.42;;;19.00;99.90;;;;;;9184916;19;20022;-74
2022/06/26 01:39:06;;;;;;;27.38;20.60;;;19.10;99.90;;;;;;9183827;19;20074;-73
2022/06/26 01:42:10;;;;;;;27.98;20.42;;;19.00;99.90;;;;;;9179533;19;20019;-73
2022/06/26 01:45:14;;;;;;;28.13;20.73;;;18.80;99.90;;;;;;9183955;19;20037;-73
2022/06/26 01:48:19;;;;;;;26.90;21.45;;;18.90;99.90;;;;;;9183815;19;20043;-74
2022/06/26 01:51:23;;;;;;;26.63;20.52;;;18.80;99.90;;;;;;9186733;19;20046;-74
2022/06/26 01:54:30;;;;;;;27.48;20.88;;;18.90;99.90;;;;;;9187352;19;20018;-74
2022/06/26 01:57:34;;;;;;;27.42;21.50;;;19.00;99.90;;;;;;9182719;19;20081;-73
2022/06/26 02:00:40;;;;;;;29.35;21.27;;;18.90;99.90;;;;;;9184906;19;20487;-73
2022/06/26 02:03:44;;;;;;;29.03;21.63;;;19.00;99.90;;;;;;9185909;19;20073;-74
2022/06/26 02:06:48;;;;;;;27.35;20.38;;;19.00;99.90;;;;;;9183051;19;20014;-74
2022/06/26 02:16:30;;;;;;;33.22;21.83;;;18.80;99.90;;;;;;9181800;19;20014;-73
2022/06/26 02:19:34;;;;;;;28.75;21.75;;;18.50;99.90;;;;;;9182860;19;20022;-74
2022/06/26 02:22:38;;;;;;;25.02;19.80;;;18.70;99.90;;;;;;9184904;19;20025;-73
2022/06/26 02:25:45;;;;;;;31.58;22.92;;;18.60;99.90;;;;;;9186039;19;20010;-73
2022/06/26 02:28:50;;;;;;;29.77;22.70;;;18.60;99.90;;;;;;9182877;19;20353;-73
2022/06/26 02:31:54;;;;;;;28.83;20.40;;;18.40;99.90;;;;;;9183558;19;20015;-74
2022/06/26 02:34:57;;;;;;;24.90;20.13;;;18.30;99.90;;;;;;9184561;19;20022;-73
2022/06/26 02:38:01;;;;;;;29.30;20.48;;;18.20;99.90;;;;;;9180346;19;20347;-74
2022/06/26 02:41:09;;;;;;;25.88;19.63;;;18.00;99.90;;;;;;9185551;19;20554;-74
2022/06/26 02:44:15;;;;;;;25.42;18.48;;;18.00;99.90;;;;;;9184754;19;20010;-73
2022/06/26 02:47:19;;;;;;;22.08;16.77;;;18.20;99.90;;;;;;9182359;19;20019;-73
2022/06/26 02:50:23;;;;;;;20.98;16.42;;;18.20;99.90;;;;;;9181042;19;20034;-74
2022/06/26 02:53:27;;;;;;;20.70;15.43;;;18.30;99.90;;;;;;9181507;19;20074;-74
2022/06/26 02:56:34;;;;;;;18.63;15.70;;;18.10;99.90;;;;;;9180356;19;20521;-74
2022/06/26 02:59:38;;;;;;;20.05;14.90;;;18.40;99.90;;;;;;9182915;19;20097;-73
2022/06/26 03:02:42;;;;;;;16.58;12.68;;;18.50;99.90;;;;;;9180735;19;20472;-73
2022/06/26 03:05:46;;;;;;;19.30;14.43;;;18.50;99.90;;;;;;9180436;19;20408;-73
2022/06/26 03:08:50;;;;;;;20.63;14.43;;;18.30;99.90;;;;;;9180931;19;20014;-73
2022/06/26 03:11:56;;;;;;;17.45;12.85;;;18.60;99.90;;;;;;9180242;19;20025;-74
2022/06/26 03:15:02;;;;;;;18.25;13.70;;;18.60;99.90;;;;;;9184125;19;20014;-75
2022/06/26 03:18:06;;;;;;;18.33;13.32;;;18.40;99.90;;;;;;9175801;19;20051;-73
2022/06/26 03:21:10;;;;;;;19.15;13.80;;;18.50;99.90;;;;;;9182691;19;20006;-73
2022/06/26 03:24:14;;;;;;;18.98;13.77;;;18.60;99.90;;;;;;9181469;19;20014;-73
2022/06/26 03:27:20;;;;;;;17.88;14.15;;;18.70;99.90;;;;;;9179653;19;20029;-74
2022/06/26 03:30:24;;;;;;;15.80;12.43;;;18.50;99.90;;;;;;9180495;19;20048;-73
2022/06/26 03:33:29;;;;;;;16.48;13.85;;;18.60;99.90;;;;;;9181502;19;20011;-73
2022/06/26 03:36:33;;;;;;;16.08;11.05;;;18.50;99.90;;;;;;9179498;19;20007;-73
2022/06/26 03:39:37;;;;;;;14.63;10.95;;;18.50;99.90;;;;;;9182054;19;20021;-74
2022/06/26 03:42:44;;;;;;;13.77;10.18;;;18.30;99.90;;;;;;9177080;19;20018;-73
2022/06/26 03:45:48;;;;;;;13.95;9.25;;;18.40;99.90;;;;;;9181773;19;20014;-73
2022/06/26 03:48:52;;;;;;;13.60;9.07;;;18.30;99.90;;;;;;9181173;19;20490;-73
2022/06/26 03:51:56;;;;;;;16.92;10.00;;;18.30;99.90;;;;;;9179393;19;20057;-74
2022/06/26 03:55:00;;;;;;;12.50;8.32;;;18.10;99.90;;;;;;9178880;19;20013;-73
2022/06/26 03:58:07;;;;;;;11.48;7.68;;;18.20;99.90;;;;;;9178987;19;20111;-73
2022/06/26 04:01:11;;;;;;;12.32;7.57;;;18.10;99.90;;;;;;9182823;19;20509;-73
2022/06/26 04:04:15;;;;;;;10.10;6.90;;;18.00;99.90;;;;;;9181745;19;20014;-73
2022/06/26 04:07:20;;;;;;;13.50;6.93;;;18.00;99.90;;;;;;9178758;19;20082;-73
2022/06/26 04:10:24;;;;;;;9.07;6.30;;;18.00;99.90;;;;;;9180790;19;20014;-73
2022/06/26 04:13:30;;;;;;;9.60;6.55;;;18.00;99.90;;;;;;9179812;19;20483;-73
2022/06/26 04:16:34;;;;;;;9.82;6.47;;;18.00;99.90;;;;;;9177510;19;20026;-73
2022/06/26 04:19:38;;;;;;;7.97;5.97;;;17.90;99.90;;;;;;9180031;19;20026;-73
2022/06/26 04:22:42;;;;;;;7.38;4.85;;;18.00;99.90;;;;;;9177426;19;20010;-73
2022/06/26 04:25:46;;;;;;;7.63;5.22;;;18.10;99.90;;;;;;9182692;19;20015;-73
2022/06/26 04:28:52;;;;;;;7.10;4.72;;;18.00;99.90;;;;;;9177607;19;20094;-73
2022/06/26 04:31:56;;;;;;;4.60;4.15;;;18.10;99.90;;;;;;9181562;19;20026;-73
2022/06/26 04:35:00;;;;;;;6.93;4.50;;;18.20;99.90;;;;;;9178805;19;20018;-74
2022/06/26 04:38:04;;;;;;;8.73;5.10;;;18.10;99.90;;;;;;9174240;19;20018;-74
2022/06/26 04:44:27;;;;;;;7.63;5.35;;;18.20;99.90;;;;;;9184079;19;20078;-73
2022/06/26 04:47:32;;;;;;;6.57;4.75;;;18.00;99.90;;;;;;9183913;19;20018;-73
2022/06/26 04:50:36;;;;;;;6.03;4.40;;;18.10;99.90;;;;;;9186539;19;20026;-73
2022/06/26 04:53:40;;;;;;;4.07;3.00;;;18.30;99.90;;;;;;9188746;19;20038;-72
2022/06/26 04:56:44;;;;;;;4.90;2.92;;;18.30;99.90;;;;;;9190250;19;20030;-73
2022/06/26 04:59:50;;;;;;;3.78;2.28;;;18.20;99.90;;;;;;9188243;19;20364;-73
2022/06/26 05:02:56;;;;;;;3.58;2.53;;;17.80;99.90;;;;;;9189250;19;20019;-73
2022/06/26 05:06:00;;;;;;;3.13;2.65;;;18.00;99.90;;;;;;9186986;19;20026;-73
2022/06/26 05:09:04;;;;;;;4.30;2.70;;;17.80;99.90;;;;;;9185120;19;20015;-75
2022/06/26 05:12:09;;;;;;;3.92;2.60;;;17.80;99.90;;;;;;9186265;19;20024;-74
2022/06/26 05:15:17;;;;;;;4.43;2.58;;;17.80;99.90;;;;;;9190347;19;20014;-74
2022/06/26 05:18:21;;;;;;;4.15;2.95;;;17.60;99.90;;;;;;9188024;19;20074;-74
2022/06/26 05:21:25;;;;;;;4.53;3.00;;;17.60;99.90;;;;;;9191119;19;20025;-74
2022/06/26 05:24:29;;;;;;;3.55;3.00;;;17.70;99.90;;;;;;9186766;19;20022;-74
2022/06/26 05:27:33;;;;;;;6.20;2.90;;;17.70;99.90;;;;;;9184669;19;20018;-75
2022/06/26 05:30:40;;;;;;;5.85;3.22;;;17.50;99.90;;;;;;9185149;19;20450;-74
2022/06/26 05:33:44;;;;;;;5.20;3.00;;;17.50;99.90;;;;;;9181862;19;20014;-74
2022/06/26 05:36:48;;;;;;;4.93;2.97;;;17.50;99.90;;;;;;9189028;19;20011;-74
2022/06/26 05:39:52;;;;;;;3.55;2.80;;;17.60;99.90;;;;;;9183768;19;20018;-74
2022/06/26 05:42:56;;;;;;;7.13;2.80;;;17.70;99.90;;;;;;9183452;19;20025;-74
2022/06/26 05:46:03;;;;;;;4.32;2.65;;;17.70;99.90;;;;;;9188615;19;20022;-75
2022/06/26 05:49:07;;;;;;;4.68;2.80;;;17.70;99.90;;;;;;9180000;19;20038;-74
2022/06/26 05:52:11;;;;;;;5.40;2.90;;;17.70;99.90;;;;;;9186985;19;20356;-75
2022/06/26 05:55:15;;;;;;;3.75;3.00;;;17.60;99.90;;;;;;9183758;19;20021;-74
2022/06/26 05:58:19;;;;;;;5.25;3.10;;;17.70;99.90;;;;;;9183242;19;20487;-75
2022/06/26 06:01:26;;;;;;;4.78;3.45;;;17.80;99.90;;;;;;9184650;19;20471;-75
2022/06/26 06:04:30;;;;;;;3.97;3.25;;;17.70;99.90;;;;;;9184142;19;20006;-74
2022/06/26 06:07:35;;;;;;;3.83;3.42;;;17.70;99.90;;;;;;9187143;19;20026;-74
2022/06/26 06:10:39;;;;;;;5.20;3.35;;;17.60;99.90;;;;;;9182605;19;20048;-74
2022/06/26 06:13:43;;;;;;;5.93;4.00;;;17.50;99.90;;;;;;9176582;19;20015;-75
2022/06/26 06:16:49;;;;;;;4.63;3.70;;;17.60;99.90;;;;;;9186903;19;20014;-74
2022/06/26 06:19:53;;;;;;;5.00;4.05;;;17.70;99.90;;;;;;9181543;19;20099;-74
2022/06/26 06:23:02;;;;;;;5.97;3.97;;;17.60;99.90;;;;;;9186659;19;20025;-74
2022/06/26 06:26:06;;;;;;;4.60;3.88;;;17.40;99.90;;;;;;9182711;19;20391;-74
2022/06/26 06:29:10;;;;;;;6.25;4.43;;;17.60;99.90;;;;;;9182198;19;20015;-74
2022/06/26 06:32:16;;;;;;;6.80;4.35;;;17.60;99.90;;;;;;9183991;19;20048;-75
2022/06/26 06:35:20;;;;;;;6.38;4.80;;;17.90;99.90;;;;;;9182801;19;20022;-75
2022/06/26 06:38:25;;;;;;;7.97;4.50;;;17.90;99.90;;;;;;9180450;19;20011;-75
2022/06/26 06:41:29;;;;;;;9.15;5.80;;;18.00;99.90;;;;;;9181231;19;20360;-74
2022/06/26 06:44:33;;;;;;;8.70;6.32;;;18.10;99.90;;;;;;9181363;19;20835;-74
2022/06/26 06:47:39;;;;;;;9.55;7.07;;;18.10;99.90;;;;;;9181029;19;20023;-74
2022/06/26 06:50:44;;;;;;;8.68;7.40;;;18.00;99.90;;;;;;9181909;19;20014;-75
2022/06/26 06:53:49;;;;;;;8.23;6.40;;;17.90;99.90;;;;;;9185737;19;20018;-75
2022/06/26 06:56:52;;;;;;;10.50;6.80;;;18.00;99.90;;;;;;9182552;19;20015;-76
2022/06/26 06:59:56;;;;;;;10.70;7.65;;;17.90;99.90;;;;;;9181733;19;20091;-75
2022/06/26 07:03:06;;;;;;;10.38;7.53;;;17.80;99.90;;;;;;9183314;19;20011;-75
2022/06/26 07:06:10;;;;;;;12.10;8.32;;;17.90;99.90;;;;;;9183825;19;20017;-75
2022/06/26 07:09:14;;;;;;;10.43;8.10;;;17.90;99.90;;;;;;9182496;19;20079;-75
2022/06/26 07:12:18;;;;;;;9.27;7.47;;;18.00;99.90;;;;;;9180385;19;20006;-75
2022/06/26 07:15:22;;;;;;;9.48;7.57;;;18.00;99.90;;;;;;9183897;19;20055;-75
2022/06/26 07:18:28;;;;;;;9.10;7.28;;;18.00;99.90;;;;;;9182936;19;20393;-75
2022/06/26 07:21:33;;;;;;;10.13;8.25;;;18.10;99.90;;;;;;9183717;19;20021;-76
2022/06/26 07:24:37;;;;;;;10.85;7.65;;;18.10;99.90;;;;;;9183207;19;20014;-75
2022/06/26 07:27:41;;;;;;;11.57;8.57;;;18.20;99.90;;;;;;9179508;19;20416;-75
2022/06/26 07:30:45;;;;;;;11.20;8.30;;;18.40;99.90;;;;;;9180066;19;20017;-75
2022/06/26 07:37:08;;;;;;;10.38;8.15;;;18.10;99.90;;;;;;9179629;19;20010;-75
2022/06/26 07:40:13;;;;;;;11.75;9.32;;;18.30;99.90;;;;;;9179771;19;20038;-75
2022/06/26 07:43:18;;;;;;;;;;;18.20;99.90;;;;;;9177911;19;20036;-75
2022/06/26 07:46:22;;;;;;;11.32;8.90;;;18.80;99.90;;;;;;9183041;19;19952;-75
2022/06/26 07:49:29;;;;;;;11.52;9.57;;;18.40;99.90;;;;;;9182838;19;20018;-74
2022/06/26 07:52:34;;;;;;;13.20;10.32;;;18.30;99.90;;;;;;9178968;19;20015;-75
2022/06/26 07:55:38;;;;;;;12.98;10.15;;;18.60;99.90;;;;;;9179397;19;20014;-75
2022/06/26 07:58:42;;;;;;;15.45;11.15;;;18.30;99.90;;;;;;9177295;19;20073;-75
2022/06/26 08:01:46;;;;;;;13.70;11.23;;;18.70;99.90;;;;;;9179138;19;20023;-75
2022/06/26 08:04:52;;;;;;;16.20;10.98;;;18.60;99.90;;;;;;9177316;19;20554;-75
2022/06/26 08:07:56;;;;;;;14.48;10.88;;;18.70;99.90;;;;;;9179897;19;20014;-75
2022/06/26 08:11:00;;;;;;;13.23;10.52;;;18.60;99.90;;;;;;9178512;19;20019;-75
2022/06/26 08:14:05;;;;;;;14.13;10.77;;;18.60;99.90;;;;;;9178769;19;20014;-74
2022/06/26 08:17:09;;;;;;;16.45;10.73;;;18.60;99.90;;;;;;9187309;19;20021;-75
2022/06/26 08:20:15;;;;;;;13.93;9.65;;;18.90;99.90;;;;;;9188275;19;20014;-76
2022/06/26 08:23:20;;;;;;;13.77;10.57;;;18.60;99.90;;;;;;9184559;19;20086;-75
2022/06/26 08:26:23;;;;;;;14.40;10.68;;;18.80;99.90;;;;;;9190652;19;20020;-75
2022/06/26 08:29:27;;;;;;;16.20;11.52;;;18.40;99.90;;;;;;9187633;19;20126;-75
2022/06/26 08:32:32;;;;;;;14.95;12.10;;;18.60;99.90;;;;;;9188066;19;20021;-75
2022/06/26 08:35:38;;;;;;;15.55;11.77;;;18.50;99.90;;;;;;9186063;19;20052;-76
2022/06/26 08:38:42;;;;;;;14.90;10.63;;;18.80;99.90;;;;;;9189180;19;20385;-76
2022/06/26 08:41:47;;;;;;;10.15;8.27;;;18.90;99.90;;;;;;9184079;19;20018;-75
2022/06/26 08:44:51;;;;;;;14.00;10.63;;;18.80;99.90;;;;;;9181719;19;20022;-75
2022/06/26 08:47:57;;;;;;;15.00;11.07;;;19.00;99.90;;;;;;9189711;19;20015;-76
2022/06/26 08:51:04;;;;;;;13.77;9.95;;;18.90;99.90;;;;;;9188798;19;20034;-75
2022/06/26 08:54:09;;;;;;;12.70;9.35;;;19.10;99.90;;;;;;9180776;19;20353;-76
2022/06/26 08:57:13;;;;;;;12.93;9.82;;;19.00;99.90;;;;;;9190809;19;20019;-74
2022/06/26 09:00:20;;;;;;;12.25;9.07;;;19.00;99.90;;;;;;9182692;19;20111;-75
2022/06/26 09:03:25;;;;;;;13.00;10.65;;;19.00;99.90;;;;;;9190610;19;20333;-76
2022/06/26 09:06:32;;;;;;;12.80;8.60;;;19.00;99.90;;;;;;9188486;19;20029;-76
2022/06/26 09:09:38;;;;;;;11.50;8.40;;;18.90;99.90;;;;;;9187823;19;20029;-76
2022/06/26 09:12:42;;;;;;;11.32;8.93;;;19.20;99.90;;;;;;9186457;19;20017;-76
2022/06/26 09:15:50;;;;;;;8.57;6.85;;;19.10;99.90;;;;;;9186091;19;20021;-76
2022/06/26 09:18:55;;;;;;;6.40;5.43;;;19.20;99.90;;;;;;9189608;19;20498;-76
2022/06/26 09:22:11;;;;;;;7.03;6.13;;;19.30;99.90;;;;;;9187005;19;20011;-76
2022/06/26 09:25:15;;;;;;;9.57;6.10;;;19.50;99.90;;;;;;9185001;19;20410;-76
2022/06/26 09:28:22;;;;;;;6.53;5.15;;;19.30;99.90;;;;;;9190426;19;20074;-76
2022/06/26 09:31:26;;;;;;;5.10;4.38;;;19.10;99.90;;;;;;9188412;19;20018;-76
2022/06/26 09:34:30;;;;;;;6.05;4.65;;;19.30;99.90;;;;;;9183344;19;20078;-76
2022/06/26 09:37:39;;;;;;;8.88;6.55;;;19.40;99.90;;;;;;9188729;19;20029;-76
2022/06/26 09:40:48;;;;;;;9.02;5.88;;;19.60;99.90;;;;;;9181440;19;20078;-76
2022/06/26 09:43:53;;;;;;;3.33;2.90;;;19.50;99.90;;;;;;9183295;19;20074;-76
2022/06/26 09:46:57;;;;;;;6.90;4.90;;;19.60;99.90;;;;;;9185573;19;20022;-76
2022/06/26 09:50:06;;;;;;;4.55;3.25;;;19.40;99.90;;;;;;9183118;19;21429;-76
2022/06/26 09:53:12;;;;;;;5.88;3.47;;;19.50;99.90;;;;;;9186655;19;20014;-76
2022/06/26 09:56:17;;;;;;;7.20;4.50;;;19.50;99.90;;;;;;9193234;19;20018;-77
2022/06/26 09:59:21;;;;;;;4.60;4.15;;;19.50;99.90;;;;;;9184906;19;20023;-77
2022/06/26 10:09:05;;;;;;;4.60;3.42;;;19.80;99.90;;;;;;9177277;19;20011;-77
2022/06/26 10:12:12;;;;;;;5.28;3.72;;;20.00;99.90;;;;;;9181731;19;20023;-79
2022/06/26 10:15:16;;;;;;;;;;;20.00;99.90;;;;;;9184525;19;20414;-78
2022/06/26 10:18:36;;;;;;;4.40;3.78;;;20.30;99.90;;;;;;9179302;19;20368;-78
2022/06/26 10:21:42;;;;;;;6.55;3.97;;;20.70;99.90;;;;;;9175329;19;20014;-80
2022/06/26 10:24:57;;;;;;;5.75;4.10;;;20.70;99.90;;;;;;9182976;19;20018;-80
2022/06/26 10:28:02;;;;;;;6.45;3.53;;;20.50;99.90;;;;;;9184828;19;20018;-77
2022/06/26 10:31:09;;;;;;;3.83;3.17;;;20.50;99.90;;;;;;9180066;19;20022;-77
2022/06/26 10:34:17;;;;;;;4.03;3.00;;;20.30;99.90;;;;;;9184497;19;20014;-80
2022/06/26 10:37:21;;;;;;;5.55;3.45;;;20.50;99.90;;;;;;9184094;19;20029;-81
2022/06/26 10:43:55;;;;;;;3.17;2.80;;;20.50;99.90;;;;;;9180604;19;20019;-79
2022/06/26 10:46:59;;;;;;;2.63;2.30;;;20.60;99.90;;;;;;9177808;19;20015;-80
2022/06/26 10:50:03;;;;;;;4.55;3.00;;;20.50;99.90;;;;;;9180921;19;20043;-84
2022/06/26 10:53:22;;;;;;;5.07;2.63;;;20.80;99.90;;;;;;9182658;19;20074;-80
2022/06/26 10:56:29;;;;;;;5.78;2.83;;;21.00;99.90;;;;;;9183244;19;20018;-79
2022/06/26 10:59:33;;;;;;;3.05;2.58;;;21.20;99.60;;;;;;9176626;19;20066;-81
2022/06/26 11:02:39;;;;;;;4.85;2.60;;;21.10;99.40;;;;;;9032833;19;20026;-80
2022/06/26 11:05:53;;;;;;;4.07;2.30;;;21.10;99.60;;;;;;9180407;19;20014;-80
2022/06/26 11:08:57;;;;;;;3.85;2.40;;;21.00;99.60;;;;;;9182113;19;20018;-78
2022/06/26 11:12:04;;;;;;;3.33;2.60;;;20.90;99.50;;;;;;9180430;19;20394;-81
2022/06/26 11:15:08;;;;;;;3.58;2.58;;;20.80;99.30;;;;;;9175477;19;20011;-81
2022/06/26 11:18:13;;;;;;;5.60;2.72;;;21.20;99.70;;;;;;9177910;19;20014;-79
2022/06/26 11:21:18;;;;;;;3.83;2.88;;;21.40;99.20;;;;;;9177964;19;20074;-79
2022/06/26 11:24:22;;;;;;;5.68;2.40;;;21.50;98.90;;;;;;9183049;19;20025;-81
2022/06/26 11:27:31;;;;;;;3.50;2.50;;;21.30;98.60;;;;;;9179555;19;20018;-80
2022/06/26 11:30:35;;;;;;;5.20;2.50;;;21.20;98.80;;;;;;9181227;19;20029;-80
2022/06/26 11:33:41;;;;;;;3.25;2.38;;;21.30;98.90;;;;;;9177019;19;20017;-80
2022/06/26 11:36:51;;;;;;;3.15;2.78;;;21.20;98.80;;;;;;9184560;19;20033;-80
2022/06/26 11:39:55;;;;;;;5.35;2.60;;;21.30;98.90;;;;;;9176822;19;20018;-76
2022/06/26 11:43:02;;;;;;;3.38;2.47;;;21.30;99.10;;;;;;9178016;19;20048;-77
2022/06/26 11:46:06;;;;;;;5.55;2.85;;;21.30;98.70;;;;;;9182881;19;20014;-78
2022/06/26 11:49:12;;;;;;;8.48;2.47;;;21.30;99.00;;;;;;9178403;19;20025;-78
2022/06/26 11:52:17;;;;;;;4.13;2.53;;;21.60;99.80;;;;;;9177409;19;20021;-78
2022/06/26 11:55:21;;;;;;;3.75;2.50;;;21.70;99.20;;;;;;9181181;19;20746;-78
2022/06/26 11:58:30;;;;;;;4.53;2.20;;;21.80;98.20;;;;;;9181080;19;20028;-78
2022/06/26 12:01:35;;;;;;;2.85;2.10;;;22.10;98.70;;;;;;9176940;19;20018;-78
2022/06/26 12:04:39;;;;;;;3.30;2.30;;;22.20;98.50;;;;;;9182571;19;20349;-77
2022/06/26 12:07:44;;;;;;;3.33;2.38;;;22.60;97.90;;;;;;9178649;19;20015;-78
2022/06/26 12:10:53;;;;;;;3.13;2.55;;;22.40;97.90;;;;;;9179079;19;20078;-78
2022/06/26 12:13:59;;;;;;;4.35;2.65;;;22.60;97.30;;;;;;9177671;19;20022;-78
2022/06/26 12:17:07;;;;;;;4.15;2.50;;;22.40;97.20;;;;;;9177842;19;20019;-78
2022/06/26 12:20:14;;;;;;;4.35;2.60;;;22.40;97.60;;;;;;9179805;19;20490;-78
2022/06/26 12:23:18;;;;;;;3.33;2.42;;;22.70;96.80;;;;;;9178433;19;20011;-78
2022/06/26 12:26:24;;;;;;;4.18;2.47;;;22.50;96.70;;;;;;9180051;19;20487;-77
2022/06/26 12:29:30;;;;;;;3.00;2.05;;;22.40;97.10;;;;;;9182115;19;20404;-78
2022/06/26 12:32:34;;;;;;;3.58;2.03;;;22.30;95.80;;;;;;9178670;19;20011;-78
2022/06/26 12:35:38;;;;;;;3.45;2.15;;;22.20;95.00;;;;;;9180075;19;20052;-79
2022/06/26 12:38:43;;;;;;;3.25;2.15;;;22.10;95.30;;;;;;9180356;19;20019;-78
2022/06/26 12:41:49;;;;;;;2.72;1.90;;;22.40;96.10;;;;;;9174012;19;20018;-79
2022/06/26 12:44:55;;;;;;;2.95;2.22;;;22.30;95.70;;;;;;9170489;19;20029;-79
2022/06/26 12:47:59;;;;;;;3.28;1.70;;;22.20;96.00;;;;;;9179695;19;20072;-84
2022/06/26 12:51:03;;;;;;;3.50;2.10;;;22.20;96.70;;;;;;9176919;19;20039;-84
2022/06/26 12:54:07;;;;;;;4.07;2.10;;;22.30;96.00;;;;;;9178161;19;20539;-84
2022/06/26 12:57:11;;;;;;;3.38;2.13;;;22.20;95.50;;;;;;9180633;19;20010;-84
2022/06/26 13:00:19;;;;;;;3.55;2.30;;;22.30;95.70;;;;;;9173825;19;20015;-83
2022/06/26 13:03:24;;;;;;;3.47;2.50;;;22.10;95.70;;;;;;9183653;19;20025;-83
2022/06/26 13:06:28;;;;;;;3.45;1.92;;;22.10;96.10;;;;;;9184461;19;20095;-84
2022/06/26 13:09:31;;;;;;;2.58;1.77;;;22.10;96.00;;;;;;9186665;19;20021;-84
2022/06/26 13:12:35;;;;;;;3.70;1.98;;;21.80;96.30;;;;;;9186847;19;20014;-85
2022/06/26 13:15:42;;;;;;;5.97;2.20;;;21.90;95.00;;;;;;9183536;19;20476;-82
2022/06/26 13:18:46;;;;;;;2.70;2.20;;;21.80;94.90;;;;;;9185689;19;20038;-82
2022/06/26 13:21:52;;;;;;;4.28;2.28;;;21.70;95.40;;;;;;9177067;19;20022;-83
2022/06/26 13:24:56;;;;;;;3.47;2.42;;;21.70;96.00;;;;;;9186594;19;20040;-81
2022/06/26 13:27:59;;;;;;;3.28;2.20;;;21.60;96.40;;;;;;9187837;19;20052;-81
2022/06/26 13:31:07;;;;;;;3.88;1.90;;;21.70;96.00;;;;;;9187030;19;20026;-81
2022/06/26 13:34:11;;;;;;;4.25;2.05;;;21.90;95.60;;;;;;9183018;19;20332;-80
2022/06/26 13:37:16;;;;;;;2.15;1.77;;;21.60;95.80;;;;;;9187863;19;20044;-81
2022/06/26 13:40:20;;;;;;;3.05;1.73;;;21.80;94.70;;;;;;9184313;19;20021;-80
2022/06/26 13:43:24;;;;;;;3.78;2.00;;;21.90;94.30;;;;;;9181422;19;20048;-79
2022/06/26 13:46:31;;;;;;;4.03;2.03;;;22.10;95.00;;;;;;9184508;19;20046;-81
2022/06/26 13:49:36;;;;;;;5.07;2.38;;;21.90;95.20;;;;;;9183792;19;20014;-81
2022/06/26 13:52:41;;;;;;;4.50;2.40;;;21.90;96.00;;;;;;9185774;19;20483;-80
2022/06/26 13:55:45;;;;;;;3.70;2.33;;;21.70;96.00;;;;;;9181666;19;20030;-81
2022/06/26 13:58:49;;;;;;;3.80;2.50;;;21.80;96.50;;;;;;9182729;19;20014;-81
2022/06/26 14:01:56;;;;;;;3.15;2.15;;;21.70;97.00;;;;;;9182059;19;20039;-80
2022/06/26 14:05:00;;;;;;;5.75;2.60;;;21.70;96.70;;;;;;9182273;19;20060;-81
2022/06/26 14:08:04;;;;;;;4.05;2.60;;;21.70;96.80;;;;;;9183509;19;20075;-81
2022/06/26 14:11:09;;;;;;;3.42;2.50;;;21.70;96.50;;;;;;9183085;19;20364;-80
2022/06/26 14:14:15;;;;;;;3.15;2.17;;;21.70;96.50;;;;;;9180170;19;20018;-80
2022/06/26 14:17:21;;;;;;;4.43;2.25;;;21.70;96.50;;;;;;9187013;19;20010;-80
2022/06/26 14:20:25;;;;;;;6.18;2.72;;;21.80;96.70;;;;;;9186350;19;20112;-81
2022/06/26 14:26:46;;;;;;;2.40;1.80;;;21.60;96.30;;;;;;9183644;19;20101;-81
2022/06/26 14:29:49;;;;;;;3.33;2.10;;;21.70;96.10;;;;;;9181929;19;20011;-81
2022/06/26 14:32:56;;;;;;;5.53;2.38;;;21.70;96.40;;;;;;9185229;19;20039;-81
2022/06/26 14:36:01;;;;;;;5.15;2.50;;;21.60;96.80;;;;;;9183355;19;20348;-81
2022/06/26 14:39:05;;;;;;;5.00;2.40;;;21.70;96.60;;;;;;9183413;19;20021;-81
2022/06/26 14:42:09;;;;;;;3.55;2.20;;;21.70;96.70;;;;;;9182768;19;20011;-80
2022/06/26 14:45:15;;;;;;;5.18;2.65;;;21.60;97.40;;;;;;9179823;19;20053;-81
2022/06/26 14:48:21;;;;;;;6.32;2.90;;;21.90;97.50;;;;;;9185149;19;20015;-81
2022/06/26 14:51:25;;;;;;;;;;;22.10;97.20;;;;;;9181898;19;20010;-81
2022/06/26 14:54:29;;;;;;;5.68;2.67;;;22.00;96.40;;;;;;9185180;19;19956;-81
2022/06/26 14:57:33;;;;;;;4.88;2.92;;;22.00;96.50;;;;;;9182479;19;20475;-81
2022/06/26 15:00:37;;;;;;;3.90;2.70;;;21.80;96.50;;;;;;9179640;19;20014;-79
2022/06/26 15:03:44;;;;;;;5.57;2.70;;;22.10;96.90;;;;;;9182228;19;20052;-81
2022/06/26 15:06:48;;;;;;;;;;;22.00;96.90;;;;;;9185090;19;20039;-81
2022/06/26 15:09:52;;;;;;;4.15;2.72;;;21.70;96.90;;;;;;9182521;19;19919;-81
2022/06/26 15:12:56;;;;;;;4.03;2.78;;;21.70;97.00;;;;;;9182668;19;20044;-82
2022/06/26 15:16:00;;;;;;;5.78;2.90;;;21.80;97.50;;;;;;9186154;19;20023;-82
2022/06/26 15:19:07;;;;;;;6.63;2.97;;;21.70;97.70;;;;;;9186014;19;20029;-83
2022/06/26 15:22:11;;;;;;;4.72;2.88;;;21.80;98.10;;;;;;9181282;19;20014;-81
2022/06/26 15:25:15;;;;;;;5.50;2.90;;;21.60;97.70;;;;;;9180285;19;20025;-81
2022/06/26 15:28:19;;;;;;;6.55;2.67;;;21.70;97.80;;;;;;9183990;19;20474;-82
2022/06/26 15:31:23;;;;;;;4.05;2.65;;;21.60;97.70;;;;;;9178415;19;20483;-81
2022/06/26 15:34:30;;;;;;;6.57;3.08;;;21.50;97.70;;;;;;9179112;19;20047;-80
2022/06/26 15:37:33;;;;;;;3.65;2.92;;;21.30;98.10;;;;;;9179879;19;20490;-81
2022/06/26 15:40:37;;;;;;;5.43;3.00;;;21.50;98.50;;;;;;9178665;19;20025;-81
2022/06/26 15:43:41;;;;;;;5.25;2.50;;;21.40;98.50;;;;;;9179769;19;20018;-79
2022/06/26 15:46:45;;;;;;;5.22;2.97;;;21.40;98.60;;;;;;9181466;19;20367;-81
2022/06/26 15:49:52;;;;;;;6.20;2.92;;;21.50;98.70;;;;;;9175828;19;20022;-81
2022/06/26 15:52:56;;;;;;;7.18;2.83;;;21.20;98.50;;;;;;9178722;19;20463;-79
2022/06/26 15:55:59;;;;;;;6.38;3.00;;;21.30;98.70;;;;;;9176640;19;20108;-79
2022/06/26 15:59:03;;;;;;;7.63;2.90;;;21.20;98.40;;;;;;9181361;19;20500;-81
2022/06/26 16:02:07;;;;;;;5.05;2.95;;;21.20;98.70;;;;;;9175808;19;20022;-81
2022/06/26 16:05:15;;;;;;;8.05;3.50;;;21.20;98.50;;;;;;9177739;19;20622;-81
2022/06/26 16:08:18;;;;;;;5.22;3.30;;;21.10;99.00;;;;;;9177375;19;20042;-78
2022/06/26 16:11:22;;;;;;;6.05;2.85;;;21.20;99.10;;;;;;9180061;19;20376;-79
2022/06/26 16:14:26;;;;;;;6.70;3.25;;;21.20;99.10;;;;;;9178293;19;20025;-81
2022/06/26 16:17:30;;;;;;;4.32;2.67;;;21.20;99.20;;;;;;9179256;19;20088;-81
2022/06/26 16:20:37;;;;;;;6.55;3.35;;;21.20;99.30;;;;;;9180331;19;20010;-82